Sabathe, Austria

05:26 AM CEST on marec 26, 2017 (GMT +0200)
Nestelberg | | Change Station

Viš 1145 ft 46.72 °N, 15.44 °E | Updated 10 minutes ago

Delno oblacno
Delno oblacno
44.6 °F
Feels Like 45 °F
N
0.6
Veter Spremenljivo Veter od Zahod
Gusts 1.2 mph

Danes
High -- | Low -- °F
--% Chance of Precip.
Yesterday
High -- | Low -- °F
Precip. -- v
Zračni tlak 30.09 v
Vidljivost 5.6 milje
Oblaki Oblacno 5000 ft
Občutek zaradi vetra 45 °F
Rosišče 40 °F
Vlažnost 82%
Padavine 0.00 v
Snow Depth Not available.
6:49 AM 7:18 PM
Pojemajoči krajec, 5% visible
METAR LOWG 260320Z AUTO 11002KT 9000 OVC050 05/03 Q1019
Zračni tlak 30.09 v
Vidljivost 5.6 milje
Oblaki Oblacno 5000 ft
Občutek zaradi vetra 45 °F
Rosišče 40 °F
Vlažnost 82%
Padavine 0.00 v
Snow Depth Not available.
6:49 AM 7:18 PM
Pojemajoči krajec, 5% visible
METAR LOWG 260320Z AUTO 11002KT 9000 OVC050 05/03 Q1019

Get Severe Weather Alerts

Thanks for signing up!

Be on the lookout for a verification email in your inbox.

You'll start receiving the daily forecast at 8 AM.

×

10-Day Weather Forecast

×

Almanac

Astronomija

Mar. 26, 2017 Rise Set
Actual Time
Civil Twilight
Nautical Twilight
Astronomical Twilight
Moon
Length Of Visible Light
Dolžina dneva
Tomorrow will be .
, % of the Moon is Illuminated

Današnji ekstremi

Country Highs Country Lows

Community

WunderPhotos

Upload Photos

1,962,540 photos uploaded!

WunderBlog® & News

Nearby

Air Quality

  Air Quality AQ Index Pollutant
Not available.

Snow Depth

Station Depth Višina

Earthquake Activity

City Distance Mag. Time & Date
Minimum magnitude displayed is 2.5.

Earthquake Activity

City Distance Mag. Time & Date
Minimum magnitude displayed is 2.5.

Coastal Water Temperatures

Mesto Temperatura

Stations

Nearby Weather Stations

Station Location Temp Občutek zaradi vetra Rosišče Vlažnost Veter Precip. Viš Obnovljeno Type